Time;durP1;ratioP1;P1;durP2;ratioP2;P2;SDS_P1;SDS_P2;PMS_P1;PMS_P2;Temp;Humidity;BMP_temperature;BMP_pressure;BME280_temperature;BME280_humidity;BME280_pressure;Samples;Min_cycle;Max_cycle;Signal;HPM_P1;HPM_P2
2023/10/01 00:00:46;;;;;;;14.15;12.65;;;;;;;11.39;100.00;102353.22;6166558;23;20008;-66
2023/10/01 00:03:14;;;;;;;15.85;13.50;;;;;;;11.32;100.00;102349.69;6192043;23;20039;-66
2023/10/01 00:05:40;;;;;;;16.08;12.60;;;;;;;11.27;100.00;102348.75;6191387;23;20408;-66
2023/10/01 00:08:08;;;;;;;16.08;14.38;;;;;;;11.26;100.00;102346.97;6191597;23;20077;-66
2023/10/01 00:10:33;;;;;;;16.20;14.05;;;;;;;11.29;100.00;102351.38;6191531;23;20012;-66
2023/10/01 00:12:59;;;;;;;18.48;13.98;;;;;;;11.22;100.00;102353.97;6216162;23;20027;-66
2023/10/01 00:15:27;;;;;;;14.98;13.00;;;;;;;11.23;100.00;102357.44;6191478;23;20008;-66
2023/10/01 00:17:53;;;;;;;17.77;13.75;;;;;;;11.19;100.00;102350.41;6191477;23;20074;-66
2023/10/01 00:20:27;;;;;;;15.25;13.65;;;;;;;11.19;100.00;102355.66;6216533;23;20008;-66
2023/10/01 00:23:00;;;;;;;16.00;14.38;;;;;;;11.17;100.00;102353.03;6192447;23;20008;-66
2023/10/01 00:25:27;;;;;;;15.45;13.43;;;;;;;11.16;100.00;102350.38;6216081;23;20015;-66
2023/10/01 00:27:53;;;;;;;14.68;13.18;;;;;;;11.17;100.00;102352.16;6216105;23;20016;-66
2023/10/01 00:30:19;;;;;;;16.15;14.07;;;;;;;11.19;100.00;102355.66;6190692;23;20449;-66
2023/10/01 00:32:44;;;;;;;14.30;12.80;;;;;;;11.19;100.00;102356.56;6166110;23;20446;-66
2023/10/01 00:35:11;;;;;;;16.15;13.35;;;;;;;11.20;100.00;102353.03;6165379;23;20000;-66
2023/10/01 00:37:37;;;;;;;15.00;13.43;;;;;;;11.21;100.00;102352.19;6190520;23;20023;-66
2023/10/01 00:40:06;;;;;;;14.77;12.90;;;;;;;11.25;100.00;102355.75;6216767;23;20003;-66
2023/10/01 00:42:36;;;;;;;14.68;13.18;;;;;;;11.23;100.00;102357.44;6161495;23;20020;-66
2023/10/01 00:45:03;;;;;;;15.05;13.00;;;;;;;11.25;100.00;102345.25;6185969;23;20005;-66
2023/10/01 00:47:34;;;;;;;15.45;12.95;;;;;;;11.26;100.00;102352.22;6185859;23;20000;-66
2023/10/01 00:50:01;;;;;;;14.82;12.73;;;;;;;11.29;100.00;102347.00;6186909;23;20338;-66
2023/10/01 00:52:28;;;;;;;14.93;12.85;;;;;;;11.30;100.00;102340.03;6162007;23;20019;-66
2023/10/01 00:54:54;;;;;;;15.48;12.18;;;;;;;11.34;100.00;102336.56;6186273;23;20062;-66
2023/10/01 00:57:21;;;;;;;14.52;12.32;;;;;;;11.36;100.00;102337.44;6161175;23;20021;-66
2023/10/01 00:59:49;;;;;;;13.63;12.05;;;;;;;11.37;100.00;102326.09;6161688;23;20020;-66
2023/10/01 01:02:18;;;;;;;16.20;12.68;;;;;;;11.36;100.00;102326.94;6186590;23;20327;-66
2023/10/01 01:04:48;;;;;;;15.60;11.63;;;;;;;11.34;100.00;102321.69;6162236;23;20050;-66
2023/10/01 01:07:19;;;;;;;14.73;12.05;;;;;;;11.25;100.00;102317.25;6164230;23;20432;-66
2023/10/01 01:09:46;;;;;;;13.80;11.20;;;;;;;11.24;100.00;102317.22;6141200;23;20434;-66
2023/10/01 01:12:12;;;;;;;15.70;12.18;;;;;;;11.21;100.00;102312.81;6163613;23;20008;-66
2023/10/01 01:14:39;;;;;;;13.98;11.30;;;;;;;11.19;100.00;102311.06;6162818;23;20009;-66
2023/10/01 01:17:05;;;;;;;12.90;10.93;;;;;;;11.11;100.00;102318.00;6163065;23;20013;-66
2023/10/01 01:19:34;;;;;;;15.10;11.45;;;;;;;11.09;100.00;102318.84;6138975;23;20009;-66
2023/10/01 01:22:03;;;;;;;15.60;12.00;;;;;;;10.99;100.00;102311.75;6163365;23;20017;-66
2023/10/01 01:24:31;;;;;;;12.68;11.10;;;;;;;11.04;100.00;102319.66;6163368;23;20406;-66
2023/10/01 01:27:05;;;;;;;15.10;11.60;;;;;;;11.01;100.00;102312.63;6188093;23;19997;-66
2023/10/01 01:29:34;;;;;;;15.07;11.55;;;;;;;11.03;100.00;102316.19;6163642;23;20008;-66
2023/10/01 01:32:15;;;;;;;11.52;10.13;;;;;;;11.00;100.00;102316.13;6139922;23;20009;-66
2023/10/01 01:34:45;;;;;;;13.43;10.85;;;;;;;11.02;100.00;102313.50;6165859;23;20009;-66
2023/10/01 01:37:30;;;;;;;13.20;11.77;;;;;;;10.96;100.00;102310.81;6163085;23;20030;-66
2023/10/01 01:39:57;;;;;;;13.43;10.88;;;;;;;10.97;100.00;102309.97;6166758;23;20102;-66
2023/10/01 01:42:24;;;;;;;13.13;10.43;;;;;;;10.94;100.00;102302.94;6204277;23;20074;-66
2023/10/01 01:45:15;;;;;;;12.60;10.15;;;;;;;10.89;100.00;102299.41;6192139;23;20020;-66
2023/10/01 01:47:36;;;;;;;13.35;11.48;;;;;;;10.86;100.00;102294.13;6243981;22;20007;-66
2023/10/01 01:50:17;;;;;;;12.60;11.15;;;;;;;10.79;100.00;102287.94;6167865;23;20007;-66
2023/10/01 01:52:47;;;;;;;11.60;10.38;;;;;;;10.81;100.00;102290.59;6195805;23;20111;-66
2023/10/01 01:55:26;;;;;;;13.63;10.73;;;;;;;10.73;100.00;102299.25;6193568;23;20011;-66
2023/10/01 01:58:11;;;;;;;11.88;10.57;;;;;;;10.72;100.00;102297.47;6216645;23;20004;-66
2023/10/01 02:00:37;;;;;;;15.27;11.38;;;;;;;10.70;100.00;102293.97;6217281;23;20573;-66
2023/10/01 02:03:17;;;;;;;13.63;10.45;;;;;;;10.66;100.00;102301.75;6217965;23;20011;-66
2023/10/01 02:05:47;;;;;;;13.75;11.05;;;;;;;10.61;100.00;102288.59;6194958;23;20012;-66
2023/10/01 02:08:34;;;;;;;15.55;10.75;;;;;;;10.64;100.00;102296.50;6217646;23;20007;-66
2023/10/01 02:11:04;;;;;;;12.93;10.55;;;;;;;10.57;100.00;102294.69;6196748;23;20008;-66
2023/10/01 02:13:32;;;;;;;13.85;10.85;;;;;;;10.56;100.00;102290.31;6217417;23;20038;-66
2023/10/01 02:16:18;;;;;;;12.43;10.88;;;;;;;10.50;100.00;102285.88;6191798;23;20012;-66
2023/10/01 02:18:55;;;;;;;15.40;10.80;;;;;;;10.53;100.00;102290.25;6243723;22;20494;-66
2023/10/01 02:21:42;;;;;;;14.30;11.27;;;;;;;10.55;100.00;102275.44;6194802;23;20008;-66
2023/10/01 02:24:14;;;;;;;12.18;9.82;;;;;;;10.50;100.00;102271.88;6244635;23;20341;-66
2023/10/01 02:26:41;;;;;;;12.15;10.80;;;;;;;10.50;100.00;102274.50;6194108;23;20341;-66
2023/10/01 02:29:07;;;;;;;12.93;10.27;;;;;;;10.48;100.00;102268.38;6167092;23;20103;-66
2023/10/01 02:31:35;;;;;;;11.77;10.57;;;;;;;10.48;100.00;102271.00;6191757;23;20039;-66
2023/10/01 02:34:08;;;;;;;14.25;10.35;;;;;;;10.47;100.00;102261.38;6217443;23;20086;-66
2023/10/01 02:36:36;;;;;;;13.30;10.00;;;;;;;10.47;100.00;102271.84;6192523;23;20118;-66
2023/10/01 02:39:11;;;;;;;13.43;10.10;;;;;;;10.46;100.00;102268.34;6192514;23;20389;-66
2023/10/01 02:41:38;;;;;;;13.35;10.07;;;;;;;10.43;100.00;102270.06;6193925;23;20024;-66
2023/10/01 02:44:04;;;;;;;12.07;9.65;;;;;;;10.46;100.00;102268.34;6168033;23;20012;-66
2023/10/01 02:46:29;;;;;;;13.15;9.50;;;;;;;10.45;100.00;102276.22;6166877;23;20008;-66
2023/10/01 02:48:59;;;;;;;12.20;9.43;;;;;;;10.48;100.00;102276.25;6192126;23;20106;-66
2023/10/01 02:51:37;;;;;;;12.13;9.45;;;;;;;10.45;100.00;102286.69;6216977;23;20027;-66
2023/10/01 02:54:09;;;;;;;11.23;8.48;;;;;;;10.41;100.00;102280.50;6244518;23;20027;-66
2023/10/01 02:56:52;;;;;;;12.73;9.18;;;;;;;10.39;100.00;102283.13;6192104;23;20012;-66
2023/10/01 02:59:20;;;;;;;13.77;9.73;;;;;;;10.39;100.00;102288.34;6194892;23;20346;-66
2023/10/01 03:01:46;;;;;;;14.07;10.23;;;;;;;10.38;100.00;102283.97;6216482;23;20000;-66
2023/10/01 03:04:15;;;;;;;13.13;9.20;;;;;;;10.38;100.00;102278.72;6192512;23;20012;-66
2023/10/01 03:06:53;;;;;;;11.57;8.70;;;;;;;10.36;100.00;102283.09;6217314;23;20075;-66
2023/10/01 03:09:33;;;;;;;12.18;9.40;;;;;;;10.39;100.00;102277.88;6217349;23;20014;-66
2023/10/01 03:15:16;;;;;;;11.30;9.38;;;;;;;10.32;100.00;102273.38;6220814;23;20022;-66
2023/10/01 03:17:57;;;;;;;12.80;8.70;;;;;;;10.31;100.00;102269.00;6198132;23;20007;-66
2023/10/01 03:23:17;;;;;;;12.50;9.60;;;;;;;10.28;100.00;102268.97;6229830;23;20350;-66
2023/10/01 03:25:55;;;;;;;13.85;9.35;;;;;;;10.30;100.00;102262.03;6193370;23;20035;-66
2023/10/01 03:28:28;;;;;;;10.60;8.55;;;;;;;10.31;100.00;102266.38;6216342;23;20012;-66
2023/10/01 03:31:06;;;;;;;13.63;9.25;;;;;;;10.28;100.00;102268.97;6216076;23;20004;-66
2023/10/01 03:33:37;;;;;;;11.93;9.00;;;;;;;10.26;100.00;102273.31;6217143;23;20003;-66
2023/10/01 03:36:11;;;;;;;11.95;8.88;;;;;;;10.26;100.00;102270.72;6167535;23;20019;-66
2023/10/01 03:38:48;;;;;;;12.23;8.98;;;;;;;10.24;100.00;102269.78;6169229;23;20442;-66
2023/10/01 03:41:52;;;;;;;12.98;8.68;;;;;;;10.24;100.00;102261.94;6193841;23;20015;-66
2023/10/01 03:44:09;;;;;;;10.10;8.15;;;;;;;10.25;100.00;102258.47;6240417;23;20035;-66
2023/10/01 03:46:42;;;;;;;12.57;9.02;;;;;;;10.29;100.00;102265.50;6169884;23;20026;-66
2023/10/01 03:51:52;;;;;;;10.98;8.55;;;;;;;10.24;100.00;102256.69;6221670;23;20343;-66
2023/10/01 03:57:11;;;;;;;12.10;8.60;;;;;;;10.24;100.00;102256.69;6244327;22;20066;-66
2023/10/01 03:59:38;;;;;;;12.38;9.23;;;;;;;10.22;100.00;102263.66;6192314;23;20337;-66
2023/10/01 04:02:07;;;;;;;11.20;8.05;;;;;;;10.22;100.00;102261.03;6216571;23;20004;-66
2023/10/01 04:04:56;;;;;;;10.67;8.60;;;;;;;10.17;100.00;102261.00;6193081;23;20048;-66
2023/10/01 04:07:22;;;;;;;10.30;7.35;;;;;;;10.15;100.00;102264.44;6222144;22;20016;-66
2023/10/01 04:09:50;;;;;;;11.98;8.18;;;;;;;10.17;100.00;102261.00;6168472;23;20004;-66
2023/10/01 04:12:19;;;;;;;11.57;8.13;;;;;;;10.14;100.00;102263.56;6217082;23;20028;-66
2023/10/01 04:14:49;;;;;;;11.35;7.68;;;;;;;10.19;100.00;102258.38;6216903;23;20303;-66
2023/10/01 04:17:18;;;;;;;13.75;8.48;;;;;;;10.21;100.00;102264.50;6217299;22;20343;-66
2023/10/01 04:19:49;;;;;;;12.57;8.45;;;;;;;10.21;100.00;102259.28;6244328;23;20075;-66
2023/10/01 04:22:17;;;;;;;10.65;7.93;;;;;;;10.19;100.00;102261.88;6166504;23;20036;-66
2023/10/01 04:25:00;;;;;;;13.68;8.40;;;;;;;10.21;100.00;102254.94;6167865;23;20008;-66
2023/10/01 04:27:30;;;;;;;12.70;8.45;;;;;;;10.22;100.00;102258.44;6194937;23;20344;-66
2023/10/01 04:29:58;;;;;;;12.55;8.32;;;;;;;10.23;100.00;102249.72;6192664;23;20408;-66
2023/10/01 04:32:27;;;;;;;10.15;7.30;;;;;;;10.20;100.00;102255.78;6214674;23;20091;-66
2023/10/01 04:35:01;;;;;;;11.93;8.30;;;;;;;10.21;100.00;102267.13;6167541;23;20008;-66
2023/10/01 04:37:40;;;;;;;14.63;8.13;;;;;;;10.20;100.00;102258.41;6217175;23;20008;-66
2023/10/01 04:42:51;;;;;;;9.73;7.60;;;;;;;10.22;100.00;102253.19;6192233;23;20087;-67
2023/10/01 04:45:23;;;;;;;12.07;8.23;;;;;;;10.21;100.00;102260.19;6188640;23;20021;-66
2023/10/01 04:47:55;;;;;;;11.50;8.27;;;;;;;10.23;100.00;102255.81;6166221;23;20020;-66
2023/10/01 04:50:27;;;;;;;10.55;7.78;;;;;;;10.29;100.00;102248.91;6189461;23;20039;-66
2023/10/01 04:52:55;;;;;;;10.73;7.82;;;;;;;10.26;100.00;102254.09;6213644;23;20008;-66
2023/10/01 04:55:22;;;;;;;12.77;8.13;;;;;;;10.27;100.00;102262.00;6189302;23;20042;-66
2023/10/01 04:57:48;;;;;;;9.25;6.93;;;;;;;10.19;100.00;102259.25;6188227;23;20315;-66
2023/10/01 05:00:14;;;;;;;10.48;7.30;;;;;;;10.19;100.00;102266.25;6188400;23;20012;-66
2023/10/01 05:02:43;;;;;;;9.90;7.63;;;;;;;10.21;100.00;102268.03;6188587;23;20036;-66
2023/10/01 05:05:11;;;;;;;12.25;7.80;;;;;;;10.28;100.00;102268.97;6189723;23;20025;-66
2023/10/01 05:07:36;;;;;;;11.35;7.72;;;;;;;10.25;100.00;102258.47;6165336;23;20009;-66
2023/10/01 05:10:04;;;;;;;10.35;7.38;;;;;;;10.30;100.00;102258.50;6188961;23;20013;-66
2023/10/01 05:12:31;;;;;;;10.80;7.78;;;;;;;10.25;100.00;102258.47;6164602;23;20008;-66
2023/10/01 05:14:59;;;;;;;11.20;7.50;;;;;;;10.29;100.00;102260.25;6188529;23;20017;-66
2023/10/01 05:17:31;;;;;;;13.63;8.38;;;;;;;10.34;100.00;102257.72;6189431;23;20009;-66
2023/10/01 05:19:58;;;;;;;11.90;8.32;;;;;;;10.38;100.00;102257.75;6165311;23;20005;-66
2023/10/01 05:22:24;;;;;;;11.45;7.90;;;;;;;10.37;100.00;102263.91;6189241;23;20525;-66
2023/10/01 05:24:50;;;;;;;12.10;7.93;;;;;;;10.38;100.00;102265.63;6164311;23;20092;-66
2023/10/01 05:27:18;;;;;;;9.98;7.72;;;;;;;10.41;100.00;102272.66;6163853;23;20028;-66
2023/10/01 05:29:45;;;;;;;12.88;8.30;;;;;;;10.42;100.00;102270.94;6188166;23;20024;-66
2023/10/01 05:32:11;;;;;;;11.23;7.70;;;;;;;10.39;100.00;102275.25;6188291;23;20008;-66
2023/10/01 05:34:46;;;;;;;12.02;7.60;;;;;;;10.43;100.00;102270.06;6213812;23;20008;-66
2023/10/01 05:37:37;;;;;;;11.27;7.68;;;;;;;10.40;100.00;102277.03;6212851;23;20004;-66
2023/10/01 05:40:00;;;;;;;10.45;7.65;;;;;;;10.43;100.00;102277.91;6213448;23;20019;-66
2023/10/01 05:42:28;;;;;;;15.25;8.30;;;;;;;10.45;100.00;102273.59;6162576;23;20021;-66
2023/10/01 05:44:59;;;;;;;11.07;7.40;;;;;;;10.47;100.00;102282.34;6212945;23;20032;-66
2023/10/01 05:47:50;;;;;;;9.18;7.15;;;;;;;10.45;100.00;102284.06;6212404;23;20043;-66
2023/10/01 05:50:18;;;;;;;9.93;6.80;;;;;;;10.48;100.00;102284.09;6194336;23;20019;-66
2023/10/01 05:52:45;;;;;;;13.23;8.00;;;;;;;10.47;100.00;102279.72;6213036;23;20009;-66
2023/10/01 05:55:15;;;;;;;11.27;7.22;;;;;;;10.54;100.00;102281.53;6213543;23;20009;-66
2023/10/01 05:57:41;;;;;;;10.25;7.35;;;;;;;10.54;100.00;102269.34;6164667;23;20063;-66
2023/10/01 06:00:18;;;;;;;12.13;7.72;;;;;;;10.63;100.00;102271.19;6188110;23;20012;-66
2023/10/01 06:02:48;;;;;;;10.63;7.18;;;;;;;10.66;100.00;102281.69;6190262;23;20023;-66
2023/10/01 06:05:33;;;;;;;12.03;7.80;;;;;;;10.70;100.00;102279.97;6188178;23;20021;-66
2023/10/01 06:08:13;;;;;;;11.18;7.40;;;;;;;10.81;100.00;102282.72;6170021;23;20720;-66
2023/10/01 06:10:47;;;;;;;11.10;7.45;;;;;;;10.88;100.00;102288.03;6213375;23;20424;-66
2023/10/01 06:13:14;;;;;;;10.48;7.30;;;;;;;10.95;100.00;102281.13;6212741;23;20430;-66
2023/10/01 06:15:40;;;;;;;11.30;7.22;;;;;;;11.06;100.00;102282.09;6212149;23;20427;-66
2023/10/01 06:18:05;;;;;;;11.80;7.78;;;;;;;11.37;100.00;102277.09;6163138;23;20013;-66
2023/10/01 06:20:33;;;;;;;10.57;7.28;;;;;;;12.02;100.00;102288.06;6188397;23;20005;-66
2023/10/01 06:22:59;;;;;;;12.13;6.93;;;;;;;13.03;95.43;102291.91;6188116;23;20094;-66
2023/10/01 06:25:43;;;;;;;12.75;6.68;;;;;;;13.79;89.66;102282.25;6187994;23;20736;-66
2023/10/01 06:28:09;;;;;;;9.23;6.13;;;;;;;14.46;84.69;102292.56;6189530;23;20005;-66
2023/10/01 06:30:43;;;;;;;10.13;6.03;;;;;;;14.77;81.99;102287.16;6186089;23;20465;-66
2023/10/01 06:33:24;;;;;;;12.05;6.30;;;;;;;15.19;79.91;102285.09;6189615;23;20062;-67
2023/10/01 06:36:15;;;;;;;11.02;6.25;;;;;;;15.61;78.98;102287.38;6212995;23;20000;-66
2023/10/01 06:38:41;;;;;;;;;;;;;;;17.26;75.84;102288.78;6213202;23;20058;-66
2023/10/01 06:41:13;;;;;;;10.50;5.72;;;;;;;17.51;70.81;102293.66;6214314;23;20241;-67
2023/10/01 06:43:48;;;;;;;9.77;6.10;;;;;;;17.74;69.18;102284.44;6193486;23;20008;-66
2023/10/01 06:46:22;;;;;;;10.15;6.32;;;;;;;17.97;67.33;102278.72;6194167;23;20012;-67
2023/10/01 06:48:51;;;;;;;9.90;5.82;;;;;;;17.99;67.10;102279.56;6194147;23;20004;-67
2023/10/01 06:51:25;;;;;;;8.27;5.50;;;;;;;18.34;65.89;102275.31;6217848;23;20000;-67
2023/10/01 06:54:04;;;;;;;9.57;5.88;;;;;;;18.83;65.29;102284.84;6194088;23;20019;-67
2023/10/01 06:56:33;;;;;;;10.95;5.97;;;;;;;19.25;62.58;102280.31;6217487;23;20039;-67
2023/10/01 07:01:47;;;;;;;10.75;5.45;;;;;;;19.60;61.56;102287.38;6228721;23;20111;-67
2023/10/01 07:04:17;;;;;;;9.50;5.75;;;;;;;20.30;60.45;102286.34;6193967;23;20016;-67
2023/10/01 07:06:44;;;;;;;9.32;5.80;;;;;;;20.07;60.31;102281.69;6217423;23;20329;-67
2023/10/01 07:09:24;;;;;;;9.38;6.32;;;;;;;21.00;57.88;102285.06;6192563;23;20427;-67
2023/10/01 07:12:00;;;;;;;9.27;6.05;;;;;;;21.72;56.98;102287.13;6173418;23;20497;-67
2023/10/01 07:14:38;;;;;;;8.98;6.00;;;;;;;20.63;57.72;102286.22;6192084;23;20016;-67
2023/10/01 07:17:08;;;;;;;8.93;6.00;;;;;;;19.46;61.58;102286.88;6217221;22;20366;-67
2023/10/01 07:19:35;;;;;;;9.23;5.70;;;;;;;18.67;64.12;102283.44;6193116;23;20399;-67
2023/10/01 07:22:06;;;;;;;11.93;6.85;;;;;;;17.97;66.82;102287.56;6216629;23;20042;-67
2023/10/01 07:24:35;;;;;;;12.05;6.30;;;;;;;17.91;68.64;102282.34;6216222;23;20004;-68
2023/10/01 07:27:05;;;;;;;10.20;6.27;;;;;;;18.22;69.21;102281.75;6242414;22;20004;-67
2023/10/01 07:29:36;;;;;;;11.45;6.63;;;;;;;18.20;69.82;102291.50;6191075;23;20016;-67
2023/10/01 07:32:08;;;;;;;;;;;;;;;19.78;67.77;102295.75;6217439;23;20008;-67
2023/10/01 07:34:39;;;;;;;9.27;6.20;;;;;;;20.39;66.45;102296.69;6217288;23;20285;-67
2023/10/01 07:37:05;;;;;;;8.18;5.63;;;;;;;20.41;63.02;102296.66;6217113;22;20004;-67
2023/10/01 07:39:35;;;;;;;10.40;6.25;;;;;;;20.01;64.72;102295.16;6192227;23;20034;-67
2023/10/01 07:42:04;;;;;;;10.77;6.25;;;;;;;19.83;65.24;102299.22;6212060;23;20027;-67
2023/10/01 07:44:33;;;;;;;9.85;6.50;;;;;;;19.36;66.30;102289.75;6187385;23;20004;-68
2023/10/01 07:47:00;;;;;;;10.82;6.80;;;;;;;19.88;65.52;102303.50;6211560;23;20000;-67
2023/10/01 07:49:41;;;;;;;11.48;6.57;;;;;;;21.61;61.83;102302.63;6211814;23;20104;-67
2023/10/01 07:52:07;;;;;;;10.73;6.40;;;;;;;22.10;56.80;102316.00;6189761;23;20071;-67
2023/10/01 07:54:33;;;;;;;9.85;6.22;;;;;;;22.92;55.83;102318.22;6186831;23;20012;-68
2023/10/01 07:56:58;;;;;;;10.35;6.28;;;;;;;22.04;55.07;102317.09;6186585;23;20402;-68
2023/10/01 07:59:46;;;;;;;9.77;6.97;;;;;;;21.89;56.64;102323.84;6211972;23;20013;-67
2023/10/01 08:04:57;;;;;;;11.27;6.40;;;;;;;21.07;60.09;102307.94;6223154;23;20012;-67
2023/10/01 08:07:30;;;;;;;9.85;6.60;;;;;;;20.70;61.49;102308.22;6211151;23;20111;-67
2023/10/01 08:09:59;;;;;;;11.15;6.57;;;;;;;19.92;64.02;102309.59;6187878;23;20031;-67
2023/10/01 08:12:29;;;;;;;10.50;6.90;;;;;;;19.45;66.12;102309.03;6186335;23;20019;-68
2023/10/01 08:15:29;;;;;;;12.38;7.25;;;;;;;18.97;69.23;102303.13;6213141;23;20039;-68
2023/10/01 08:18:19;;;;;;;11.48;7.03;;;;;;;18.74;69.04;102294.78;6213249;23;20004;-68
2023/10/01 08:20:57;;;;;;;9.70;6.77;;;;;;;18.52;71.00;102304.09;6216047;23;20012;-67
2023/10/01 08:23:27;;;;;;;11.77;7.05;;;;;;;18.80;71.18;102300.81;6191165;23;20012;-67
2023/10/01 08:25:55;;;;;;;11.05;6.70;;;;;;;19.37;71.94;102307.44;6189039;23;20165;-67
2023/10/01 08:28:29;;;;;;;12.05;7.68;;;;;;;19.23;72.23;102309.56;6164722;23;20026;-68
2023/10/01 08:31:01;;;;;;;12.15;7.00;;;;;;;19.16;70.69;102314.16;6213552;23;20096;-67
2023/10/01 08:33:42;;;;;;;12.07;7.45;;;;;;;19.39;71.25;102315.38;6190087;23;20099;-67
2023/10/01 08:36:14;;;;;;;12.00;7.82;;;;;;;19.35;70.97;102313.72;6167751;23;20005;-67
2023/10/01 08:38:47;;;;;;;11.43;6.80;;;;;;;19.88;70.52;102319.47;6189338;23;20102;-67
2023/10/01 08:41:32;;;;;;;13.82;6.97;;;;;;;20.15;69.07;102319.59;6192178;23;20020;-67
2023/10/01 08:44:09;;;;;;;11.45;7.13;;;;;;;20.15;67.54;102318.72;6196643;23;20097;-68
2023/10/01 08:46:39;;;;;;;12.13;7.80;;;;;;;21.50;64.57;102315.44;6216956;23;20062;-67
2023/10/01 08:49:18;;;;;;;13.75;7.68;;;;;;;23.70;59.68;102316.75;6217085;23;20007;-67
2023/10/01 08:51:44;;;;;;;11.20;6.90;;;;;;;25.11;53.11;102315.63;6195350;23;20042;-67
2023/10/01 08:54:17;;;;;;;9.30;6.60;;;;;;;25.82;49.69;102315.59;6168501;23;20011;-67
2023/10/01 08:56:44;;;;;;;12.77;7.47;;;;;;;25.04;51.65;102315.94;6171229;23;20016;-68
2023/10/01 08:59:23;;;;;;;13.00;7.40;;;;;;;24.19;53.51;102321.75;6169126;23;20012;-68
2023/10/01 09:01:52;;;;;;;11.50;7.10;;;;;;;23.38;56.88;102313.66;6218386;23;20032;-67
2023/10/01 09:04:44;;;;;;;10.35;6.82;;;;;;;23.17;59.63;102319.00;6218665;23;20496;-68
2023/10/01 09:07:18;;;;;;;13.07;7.93;;;;;;;22.47;59.01;102315.50;6218912;22;20335;-67
2023/10/01 09:10:05;;;;;;;12.40;7.40;;;;;;;22.71;61.02;102312.78;6218098;23;20000;-65
2023/10/01 09:12:45;;;;;;;10.60;7.53;;;;;;;22.06;60.07;102315.22;6219255;23;20000;-67
2023/10/01 09:15:43;;;;;;;11.75;7.40;;;;;;;22.07;61.96;102311.63;6172765;23;20476;-67
2023/10/01 09:18:10;;;;;;;10.90;7.47;;;;;;;21.67;62.92;102299.75;6218451;23;20035;-66
2023/10/01 09:20:42;;;;;;;12.05;7.40;;;;;;;21.18;62.94;102296.06;6193554;23;20022;-66
2023/10/01 09:23:08;;;;;;;12.88;8.00;;;;;;;20.75;65.07;102299.19;6216244;23;20014;-66
2023/10/01 09:25:39;;;;;;;10.77;7.38;;;;;;;20.97;68.07;102305.63;6217382;23;20330;-66
2023/10/01 09:28:19;;;;;;;18.95;7.90;;;;;;;21.01;67.57;102297.47;6216646;23;20000;-69
2023/10/01 09:31:26;;;;;;;11.32;7.50;;;;;;;21.59;66.48;102294.69;6217227;23;20004;-67
2023/10/01 09:33:52;;;;;;;12.52;7.60;;;;;;;21.32;66.99;102291.16;6176271;23;20015;-67
2023/10/01 09:36:45;;;;;;;13.02;7.43;;;;;;;21.31;68.18;102278.72;6192412;23;20338;-67
2023/10/01 09:39:13;;;;;;;13.50;7.30;;;;;;;21.14;66.87;102284.63;6217947;23;20047;-67
2023/10/01 09:41:42;;;;;;;13.57;7.50;;;;;;;20.90;65.74;102286.28;6162632;23;20429;-67
2023/10/01 09:44:09;;;;;;;11.98;7.53;;;;;;;20.86;67.17;102281.97;6212798;23;20008;-68
2023/10/01 09:46:37;;;;;;;12.20;7.80;;;;;;;20.52;68.08;102293.69;6214143;23;20001;-67
2023/10/01 09:49:05;;;;;;;11.98;7.45;;;;;;;20.51;70.66;102283.94;6162446;23;20362;-67
2023/10/01 09:51:41;;;;;;;14.52;8.30;;;;;;;20.86;66.99;102284.66;6187543;23;20004;-67
2023/10/01 09:54:11;;;;;;;12.65;7.43;;;;;;;20.65;67.50;102284.38;6213116;23;20008;-67
2023/10/01 09:59:08;;;;;;;;;;;;;;;21.16;68.61;102279.25;6213946;23;20423;-68
2023/10/01 10:01:35;;;;;;;11.65;7.63;;;;;;;20.70;70.29;102287.81;6213181;23;19912;-67
2023/10/01 10:04:06;;;;;;;13.13;7.57;;;;;;;20.64;69.75;102289.75;6212701;23;20004;-67
2023/10/01 10:06:32;;;;;;;13.30;8.25;;;;;;;20.62;68.50;102287.16;6211119;23;20004;-67
2023/10/01 10:09:03;;;;;;;14.15;8.45;;;;;;;20.45;68.47;102289.47;6211212;23;20008;-68
2023/10/01 10:11:44;;;;;;;14.27;7.82;;;;;;;20.68;71.54;102283.44;6186654;23;20012;-67
2023/10/01 10:14:27;;;;;;;12.15;7.30;;;;;;;20.81;69.55;102287.47;6186927;23;20012;-67
2023/10/01 10:20:15;;;;;;;11.55;7.55;;;;;;;21.22;70.76;102279.91;6214737;23;20009;-66
2023/10/01 10:23:06;;;;;;;12.55;7.68;;;;;;;21.42;70.64;102275.66;6212132;23;20047;-67
2023/10/01 10:25:35;;;;;;;13.00;7.85;;;;;;;21.45;69.93;102270.25;6188067;23;20008;-67
2023/10/01 10:28:06;;;;;;;13.65;8.32;;;;;;;21.45;70.16;102276.47;6212495;23;20001;-67
2023/10/01 10:30:32;;;;;;;11.68;7.35;;;;;;;21.37;68.61;102278.50;6189401;23;20035;-67
2023/10/01 10:33:29;;;;;;;11.50;7.03;;;;;;;21.68;69.93;102266.81;6212161;23;20012;-67
2023/10/01 10:36:50;;;;;;;13.18;7.00;;;;;;;21.84;68.64;102267.13;6187820;23;20430;-67
2023/10/01 10:39:45;;;;;;;13.05;7.60;;;;;;;22.13;67.70;102262.50;6212732;23;20047;-68
2023/10/01 10:42:28;;;;;;;11.98;7.15;;;;;;;23.31;65.04;102259.56;6202667;23;20323;-67
2023/10/01 10:45:21;;;;;;;10.20;6.82;;;;;;;23.28;62.14;102264.19;6140389;23;20012;-67
2023/10/01 10:51:02;;;;;;;13.90;7.97;;;;;;;22.45;63.86;102257.72;6164075;23;20048;-67
2023/10/01 10:53:27;;;;;;;11.15;6.70;;;;;;;22.39;65.29;102258.84;6186990;23;20251;-67
2023/10/01 10:56:00;;;;;;;12.60;7.38;;;;;;;22.40;66.46;102260.59;6187249;23;20011;-67
2023/10/01 10:58:29;;;;;;;11.52;6.85;;;;;;;22.49;67.64;102260.22;6187325;23;20008;-67
2023/10/01 11:00:56;;;;;;;11.88;6.97;;;;;;;22.68;66.30;102254.13;6187630;23;20012;-67
2023/10/01 11:03:40;;;;;;;12.00;7.43;;;;;;;22.67;65.08;102258.63;6138617;23;20375;-67
2023/10/01 11:06:44;;;;;;;13.20;7.25;;;;;;;22.59;64.47;102257.19;6163957;23;20012;-68
2023/10/01 11:09:26;;;;;;;12.80;7.93;;;;;;;22.19;64.81;102262.25;6164842;23;20434;-67
2023/10/01 11:12:18;;;;;;;11.10;6.85;;;;;;;22.16;65.26;102262.38;6165096;23;20086;-67
2023/10/01 11:14:54;;;;;;;12.68;7.22;;;;;;;22.04;66.00;102255.72;6186863;23;20023;-68
2023/10/01 11:17:22;;;;;;;12.82;7.40;;;;;;;21.99;67.21;102246.97;6186667;23;20009;-67
2023/10/01 11:19:47;;;;;;;11.55;6.93;;;;;;;22.27;69.84;102243.28;6163156;23;20004;-67
2023/10/01 11:22:22;;;;;;;12.15;7.47;;;;;;;22.20;67.60;102247.13;6139562;23;20339;-68
2023/10/01 11:24:49;;;;;;;10.63;6.30;;;;;;;22.26;66.56;102238.88;6164165;23;20008;-68
2023/10/01 11:30:24;;;;;;;12.23;7.43;;;;;;;22.32;67.33;102225.25;6213563;23;20462;-67
2023/10/01 11:33:12;;;;;;;12.55;7.68;;;;;;;22.21;65.26;102224.81;6186471;23;20111;-67
2023/10/01 11:35:40;;;;;;;11.50;6.93;;;;;;;22.20;65.67;102221.28;6186052;23;20382;-67
2023/10/01 11:38:21;;;;;;;10.98;7.28;;;;;;;22.36;66.56;102221.56;6183957;23;20382;-67
2023/10/01 11:41:06;;;;;;;12.73;7.28;;;;;;;22.31;64.95;102215.50;6160614;23;20012;-67
2023/10/01 11:43:58;;;;;;;12.48;7.75;;;;;;;22.43;67.50;102220.41;6189280;23;20032;-67
2023/10/01 11:46:57;;;;;;;14.18;7.80;;;;;;;22.55;66.02;102216.38;6209913;23;20032;-67
2023/10/01 11:49:34;;;;;;;11.10;6.78;;;;;;;22.41;65.10;102214.25;6186013;23;20017;-67
2023/10/01 11:52:20;;;;;;;11.05;6.50;;;;;;;22.51;66.82;102206.72;6211995;23;20008;-67
2023/10/01 11:54:52;;;;;;;10.98;6.78;;;;;;;22.54;65.13;102206.63;6162678;23;20077;-67
2023/10/01 11:57:22;;;;;;;12.65;7.00;;;;;;;22.89;64.53;102208.78;6185937;23;20009;-67
2023/10/01 12:00:01;;;;;;;12.90;7.68;;;;;;;22.71;63.20;102207.72;6161408;23;20015;-67
2023/10/01 12:02:32;;;;;;;11.70;7.18;;;;;;;22.70;64.79;102201.53;6186388;23;20296;-67
2023/10/01 12:05:00;;;;;;;10.90;6.78;;;;;;;22.69;65.10;102197.09;6186780;23;20116;-67
2023/10/01 12:07:32;;;;;;;11.90;7.30;;;;;;;22.59;64.67;102185.06;6186350;23;20379;-67
2023/10/01 12:09:59;;;;;;;12.63;7.53;;;;;;;22.47;63.71;102189.97;6186877;23;20004;-68